Hauptseite
METAR-TAF:

METAR-TAF

Flughäfen :

Cardiff Airport

Cardiff, Wales

Breite: 51-24N, Länge: 003-21W, Höhe: 67 m

Beobachtung

Neuester Wetterbericht von vor 18 Minuten, um 11:20 UTC
Wind 6 kt aus West/Südwest, variierte zwischen Süd und West/Nordwest
Temperatur 21°C
Luftfeuchtigkeit 53%
Luftdruck 1019 hPa
Sichtweite 10 km oder mehr

METAR: EGFF 191120Z AUTO 24006KT 190V290 9999 NCD 21/11 Q1019

Zeit: 12:38 (11:38 UTC)

Prognose

Neuester Wetterbericht von vor 37 Minuten, um 11:01 UTC
Gültige Prognose vom 19 um 12 UTC bis 20 um 12 UTC
Wind 10 kt aus West
Sichtweite 10 km oder mehr
Leicht bewölkt in der Höhe von 4500 ft
Wahrscheinlichkeit 30% :
Zeitweise
vom 20 um 11 UTC bis 20 um 12 UTC
Sichtweite: 7000 m
Regen

TAF: EGFF 191101Z 1912/2012 26010KT 9999 FEW045 PROB30 TEMPO 2011/2012 7000 RA

Wetterbeobachtungen und Prognosen von mehr als 4000 Flughäfen (METAR und TAF Bericht).

Die verfügbaren Stationen werden durch gelbe und rote Markierungen auf der Karte dargestellt.

Führen Sie die Maus auf sie, um den Namen der Station zu sehen.

Darauf klicken, um die Beobachtung von Wetterbeobachtungen und Prognosen zu sehen.

Um die Karte zu ändern : klicken Sie auf den grünen Tasten mit einem schwarzen Kreuz Zum Vergrößern, auf den grünen Button mit einem Gedankenstrich zu verkleinern, oder auf die grünen Pfeile für benachbarte Karten.


METAR-TAF: